Time;durP1;ratioP1;P1;durP2;ratioP2;P2;SDS_P1;SDS_P2;PMS_P1;PMS_P2;Temp;Humidity;BMP_temperature;BMP_pressure;BME280_temperature;BME280_humidity;BME280_pressure;Samples;Min_cycle;Max_cycle;Signal;HPM_P1;HPM_P2
2021/05/25 00:01:07;;;;;;;10.77;5.57;;;10.70;92.40;;;;;;5073297;28;20027;-75
2021/05/25 00:03:33;;;;;;;8.27;4.47;;;10.70;92.30;;;;;;5074466;28;20361;-75
2021/05/25 00:05:59;;;;;;;9.50;5.20;;;10.70;92.60;;;;;;5073491;28;20484;-75
2021/05/25 00:08:24;;;;;;;7.17;4.60;;;10.70;92.40;;;;;;5057213;28;20029;-75
2021/05/25 00:10:50;;;;;;;10.10;4.97;;;10.70;92.40;;;;;;5072894;28;20488;-77
2021/05/25 00:13:15;;;;;;;7.93;4.57;;;10.70;92.50;;;;;;5062745;28;20116;-78
2021/05/25 00:15:41;;;;;;;9.27;5.00;;;10.70;92.40;;;;;;5052160;28;20047;-76
2021/05/25 00:18:07;;;;;;;8.40;5.07;;;10.70;92.40;;;;;;5054173;28;20025;-77
2021/05/25 00:20:33;;;;;;;8.93;4.60;;;10.70;92.30;;;;;;5052892;28;20033;-76
2021/05/25 00:22:59;;;;;;;11.90;6.27;;;10.60;92.30;;;;;;5037245;28;20369;-75
2021/05/25 00:25:25;;;;;;;10.73;5.70;;;10.60;92.40;;;;;;5037205;28;20032;-77
2021/05/25 00:27:53;;;;;;;11.97;5.83;;;10.50;92.40;;;;;;5053642;28;20026;-77
2021/05/25 00:30:20;;;;;;;14.30;6.37;;;10.50;92.50;;;;;;5052794;28;20025;-76
2021/05/25 00:32:46;;;;;;;9.50;5.67;;;10.50;92.40;;;;;;5052762;28;20059;-76
2021/05/25 00:35:13;;;;;;;10.37;6.17;;;10.50;92.40;;;;;;5052559;28;20021;-77
2021/05/25 00:37:39;;;;;;;10.17;5.73;;;10.30;92.50;;;;;;5053258;28;20032;-76
2021/05/25 00:40:11;;;;;;;10.43;6.27;;;10.40;92.60;;;;;;5054167;28;20025;-77
2021/05/25 00:42:37;;;;;;;9.73;5.40;;;10.40;92.50;;;;;;5053627;28;20025;-75
2021/05/25 00:45:08;;;;;;;11.93;6.10;;;10.40;92.70;;;;;;5052465;28;20021;-76
2021/05/25 00:47:35;;;;;;;12.57;6.80;;;10.30;92.50;;;;;;5052502;28;20029;-77
2021/05/25 00:50:12;;;;;;;12.47;6.50;;;10.30;92.50;;;;;;5052565;28;20029;-76
2021/05/25 00:52:50;;;;;;;12.00;6.53;;;10.30;92.60;;;;;;5053678;28;20025;-77
2021/05/25 00:55:27;;;;;;;13.37;7.47;;;10.30;92.60;;;;;;5053894;28;20025;-77
2021/05/25 00:57:55;;;;;;;10.10;6.07;;;10.30;92.70;;;;;;5053496;28;20032;-76
2021/05/25 01:00:31;;;;;;;12.87;6.63;;;10.30;92.60;;;;;;5035616;28;20055;-76
2021/05/25 01:02:57;;;;;;;10.67;6.43;;;10.30;92.80;;;;;;5054064;28;20021;-77
2021/05/25 01:05:23;;;;;;;9.50;5.13;;;10.40;92.80;;;;;;5053687;28;20040;-76
2021/05/25 01:07:50;;;;;;;11.77;6.47;;;10.30;92.70;;;;;;5053893;28;20078;-78
2021/05/25 01:10:20;;;;;;;9.90;5.03;;;10.30;92.70;;;;;;5052212;28;20392;-77
2021/05/25 01:13:02;;;;;;;8.00;4.43;;;10.20;92.60;;;;;;5052581;28;20431;-76
2021/05/25 01:15:28;;;;;;;11.27;4.90;;;10.20;92.60;;;;;;5052435;28;20044;-77
2021/05/25 01:17:55;;;;;;;8.80;4.53;;;10.10;92.60;;;;;;5052724;28;20033;-77
2021/05/25 01:20:23;;;;;;;8.43;3.93;;;10.10;92.80;;;;;;5052284;28;20086;-76
2021/05/25 01:22:49;;;;;;;9.53;4.67;;;10.10;92.60;;;;;;5053225;28;20029;-78
2021/05/25 01:25:16;;;;;;;10.10;4.77;;;10.10;92.50;;;;;;5053685;28;20029;-76
2021/05/25 01:27:48;;;;;;;8.43;4.43;;;10.00;92.60;;;;;;5035644;28;20415;-76
2021/05/25 01:30:14;;;;;;;7.73;3.87;;;10.00;92.70;;;;;;5052049;28;20021;-77
2021/05/25 01:32:40;;;;;;;7.63;3.73;;;9.90;92.60;;;;;;5051812;28;20075;-77
2021/05/25 01:35:06;;;;;;;7.87;3.60;;;9.90;92.60;;;;;;5051828;28;20498;-76
2021/05/25 01:37:32;;;;;;;7.90;3.87;;;9.80;92.60;;;;;;5035321;28;20048;-78
2021/05/25 01:39:57;;;;;;;7.17;3.73;;;9.90;92.50;;;;;;5051972;28;20493;-78
2021/05/25 01:42:31;;;;;;;5.87;2.53;;;9.80;92.50;;;;;;5052969;28;20063;-78
2021/05/25 01:44:56;;;;;;;8.30;3.28;;;9.80;92.50;;;;;;5053572;28;20021;-76
2021/05/25 01:47:22;;;;;;;4.83;2.50;;;9.70;92.50;;;;;;5055074;28;20041;-78
2021/05/25 01:49:48;;;;;;;7.27;3.03;;;9.70;92.50;;;;;;5039386;28;20036;-77
2021/05/25 01:52:16;;;;;;;4.60;2.33;;;9.80;92.60;;;;;;5057186;28;20039;-76
2021/05/25 01:54:41;;;;;;;6.73;2.63;;;9.70;92.60;;;;;;5057206;28;20428;-77
2021/05/25 01:57:08;;;;;;;6.83;2.60;;;9.70;92.60;;;;;;5038991;28;20039;-78
2021/05/25 01:59:34;;;;;;;7.40;2.63;;;9.70;92.50;;;;;;5056860;28;20029;-78
2021/05/25 02:02:00;;;;;;;6.97;2.87;;;9.70;92.50;;;;;;5055547;28;20032;-75
2021/05/25 02:04:25;;;;;;;7.93;2.57;;;9.70;92.50;;;;;;5039180;28;20079;-76
2021/05/25 02:06:53;;;;;;;4.83;2.20;;;9.70;92.50;;;;;;5055972;28;20090;-77
2021/05/25 02:09:19;;;;;;;5.47;2.20;;;9.70;92.70;;;;;;5055473;28;20036;-76
2021/05/25 02:11:44;;;;;;;5.37;2.27;;;9.70;92.40;;;;;;5056974;28;20380;-77
2021/05/25 02:14:10;;;;;;;7.20;2.53;;;9.70;92.40;;;;;;5055516;28;20127;-74
2021/05/25 02:16:36;;;;;;;3.67;1.83;;;9.60;92.30;;;;;;5055432;28;20080;-76
2021/05/25 02:19:02;;;;;;;4.53;1.90;;;9.70;92.30;;;;;;5055536;28;20036;-76
2021/05/25 02:21:27;;;;;;;4.17;1.40;;;9.60;92.20;;;;;;5055462;28;20021;-76
2021/05/25 02:23:53;;;;;;;5.43;2.20;;;9.60;92.20;;;;;;5055368;28;20128;-77
2021/05/25 02:26:19;;;;;;;4.47;2.03;;;9.50;92.10;;;;;;5056994;28;20060;-76
2021/05/25 02:28:45;;;;;;;5.17;1.90;;;9.60;92.20;;;;;;5038763;28;20504;-78
2021/05/25 02:31:11;;;;;;;5.67;1.73;;;9.40;92.10;;;;;;5055193;28;20122;-78
2021/05/25 02:33:37;;;;;;;9.17;2.50;;;9.30;92.00;;;;;;5038376;28;20041;-77
2021/05/25 02:36:04;;;;;;;3.93;1.53;;;9.20;92.00;;;;;;5055054;28;20388;-77
2021/05/25 02:38:31;;;;;;;6.27;1.90;;;9.40;92.10;;;;;;5038348;28;20028;-77
2021/05/25 02:40:58;;;;;;;5.63;2.17;;;9.30;92.10;;;;;;5038385;28;20056;-78
2021/05/25 02:43:25;;;;;;;5.13;2.00;;;9.30;92.20;;;;;;5054644;28;20503;-75
2021/05/25 02:45:52;;;;;;;4.60;1.80;;;9.30;92.20;;;;;;5054780;28;20043;-77
2021/05/25 02:48:19;;;;;;;6.13;2.50;;;9.20;92.10;;;;;;5054712;28;20188;-77
2021/05/25 02:50:46;;;;;;;4.63;1.83;;;9.20;92.10;;;;;;5054657;28;20021;-76
2021/05/25 02:53:13;;;;;;;5.40;1.93;;;9.10;92.10;;;;;;5054502;28;20033;-77
2021/05/25 02:55:40;;;;;;;5.67;2.23;;;9.10;92.10;;;;;;5054958;28;20068;-77
2021/05/25 02:58:07;;;;;;;4.93;1.73;;;9.00;92.10;;;;;;5037947;28;20025;-77
2021/05/25 03:00:51;;;;;;;5.47;1.70;;;9.00;92.10;;;;;;5038544;28;20092;-77
2021/05/25 03:03:17;;;;;;;7.57;2.20;;;8.90;92.10;;;;;;5055668;28;20547;-77
2021/05/25 03:05:44;;;;;;;5.47;1.93;;;8.90;92.10;;;;;;5054536;28;20104;-77
2021/05/25 03:08:11;;;;;;;5.60;1.90;;;8.90;92.10;;;;;;5056178;28;20108;-77
2021/05/25 03:10:39;;;;;;;5.40;1.73;;;8.80;92.10;;;;;;5054188;28;20108;-78
2021/05/25 03:13:05;;;;;;;3.90;1.63;;;8.80;92.20;;;;;;5054613;28;20017;-77
2021/05/25 03:15:34;;;;;;;6.57;1.90;;;8.80;92.20;;;;;;5037346;28;20094;-77
2021/05/25 03:17:59;;;;;;;6.77;2.33;;;8.80;92.20;;;;;;5054197;28;20025;-78
2021/05/25 03:20:26;;;;;;;8.47;2.03;;;8.70;92.30;;;;;;5038163;28;20048;-78
2021/05/25 03:22:52;;;;;;;5.73;2.40;;;8.60;92.20;;;;;;5054351;28;20483;-77
2021/05/25 03:25:19;;;;;;;6.73;2.10;;;8.60;92.20;;;;;;5055394;28;20402;-75
2021/05/25 03:27:46;;;;;;;7.17;1.73;;;8.60;92.30;;;;;;5055385;28;20100;-77
2021/05/25 03:30:15;;;;;;;6.73;2.50;;;8.50;92.30;;;;;;5053929;28;20033;-78
2021/05/25 03:32:41;;;;;;;7.13;2.30;;;8.50;92.30;;;;;;5055514;28;20035;-78
2021/05/25 03:35:09;;;;;;;7.13;2.27;;;8.50;92.50;;;;;;5053671;28;20025;-78
2021/05/25 03:37:36;;;;;;;5.73;1.87;;;8.50;92.50;;;;;;5037423;28;20025;-79
2021/05/25 03:40:04;;;;;;;5.33;2.20;;;8.50;92.50;;;;;;5053932;28;20058;-77
2021/05/25 03:42:30;;;;;;;6.73;2.10;;;8.50;92.60;;;;;;5037027;28;20021;-78
2021/05/25 03:44:57;;;;;;;10.73;3.27;;;8.50;92.60;;;;;;5037004;28;20056;-79
2021/05/25 03:47:24;;;;;;;7.17;2.20;;;8.40;92.70;;;;;;5037623;28;20441;-78
2021/05/25 03:49:51;;;;;;;6.07;2.23;;;8.50;92.80;;;;;;5054014;28;20033;-79
2021/05/25 03:52:17;;;;;;;5.83;2.00;;;8.50;92.80;;;;;;5037158;28;20032;-78
2021/05/25 03:54:55;;;;;;;5.97;2.20;;;8.40;92.80;;;;;;5053439;28;20465;-78
2021/05/25 03:58:47;;;;;;;5.27;2.20;;;8.50;92.80;;;;;;5053292;28;20021;-77
2021/05/25 04:00:10;;;;;;;6.77;2.37;;;8.60;92.90;;;;;;5054248;28;20069;-77
2021/05/25 04:02:36;;;;;;;7.00;2.37;;;8.60;92.90;;;;;;5074729;28;20025;-78
2021/05/25 04:05:02;;;;;;;7.33;2.53;;;8.60;92.90;;;;;;5074736;28;20086;-77
2021/05/25 04:07:27;;;;;;;7.33;2.50;;;8.60;92.90;;;;;;5073473;28;20040;-75
2021/05/25 04:09:53;;;;;;;5.13;2.10;;;8.60;92.90;;;;;;5073334;28;20029;-79
2021/05/25 04:12:19;;;;;;;7.03;2.40;;;8.70;92.90;;;;;;5040004;28;20396;-78
2021/05/25 04:14:44;;;;;;;8.73;2.80;;;8.70;92.90;;;;;;5073277;28;20035;-78
2021/05/25 04:17:11;;;;;;;9.13;2.60;;;8.70;93.00;;;;;;5072428;28;20106;-77
2021/05/25 04:19:36;;;;;;;6.60;2.43;;;8.70;93.00;;;;;;5073010;28;20086;-77
2021/05/25 04:22:02;;;;;;;6.00;2.63;;;8.80;93.00;;;;;;5040024;28;20456;-75
2021/05/25 04:24:28;;;;;;;6.37;2.87;;;8.90;93.10;;;;;;5073056;28;20032;-78
2021/05/25 04:26:53;;;;;;;8.20;2.83;;;8.70;93.10;;;;;;5072843;28;20033;-75
2021/05/25 04:29:19;;;;;;;4.93;2.40;;;8.80;93.00;;;;;;5072757;28;20029;-77
2021/05/25 04:31:44;;;;;;;11.57;3.20;;;8.80;93.00;;;;;;5073047;28;20035;-77
2021/05/25 04:34:10;;;;;;;7.83;3.33;;;8.80;93.00;;;;;;5056022;28;20119;-77
2021/05/25 04:36:36;;;;;;;7.60;3.43;;;8.80;92.90;;;;;;5072778;28;20048;-78
2021/05/25 04:39:02;;;;;;;6.87;3.47;;;8.80;92.90;;;;;;5056169;28;20119;-77
2021/05/25 04:41:28;;;;;;;7.87;3.77;;;8.80;92.90;;;;;;5072530;28;20028;-78
2021/05/25 04:43:53;;;;;;;7.60;3.30;;;8.70;92.80;;;;;;5072608;28;20028;-78
2021/05/25 04:46:19;;;;;;;11.07;5.30;;;8.80;92.90;;;;;;5056058;28;20388;-76
2021/05/25 04:48:45;;;;;;;8.93;4.13;;;8.70;92.90;;;;;;5072551;28;20033;-74
2021/05/25 04:51:10;;;;;;;7.27;3.77;;;8.70;92.90;;;;;;5055893;28;20024;-76
2021/05/25 04:53:36;;;;;;;10.37;5.17;;;8.80;93.00;;;;;;5039060;28;20480;-76
2021/05/25 04:56:02;;;;;;;9.67;5.07;;;8.80;92.90;;;;;;5055613;28;20111;-78
2021/05/25 04:58:27;;;;;;;10.00;5.03;;;8.80;93.00;;;;;;5073489;28;20492;-77
2021/05/25 05:00:53;;;;;;;8.87;4.30;;;8.80;93.00;;;;;;5039086;28;20025;-77
2021/05/25 05:03:19;;;;;;;9.10;4.93;;;8.80;93.00;;;;;;5055553;28;20025;-77
2021/05/25 05:05:44;;;;;;;10.40;5.03;;;9.00;93.10;;;;;;5073853;28;20074;-76
2021/05/25 05:08:10;;;;;;;8.47;5.03;;;9.10;93.10;;;;;;5073721;28;20103;-77
2021/05/25 05:10:37;;;;;;;10.23;4.80;;;9.00;93.10;;;;;;5038885;28;20518;-76
2021/05/25 05:13:08;;;;;;;9.77;5.30;;;9.10;93.10;;;;;;5073599;28;20463;-77
2021/05/25 05:15:34;;;;;;;9.37;4.60;;;9.10;93.10;;;;;;5072328;28;20078;-78
2021/05/25 05:18:00;;;;;;;8.53;4.47;;;9.20;93.10;;;;;;5055264;28;20037;-77
2021/05/25 05:20:25;;;;;;;8.60;4.43;;;9.20;93.10;;;;;;5072622;28;20033;-78
2021/05/25 05:22:51;;;;;;;7.07;3.90;;;9.20;93.00;;;;;;5055628;28;20555;-76
2021/05/25 05:25:17;;;;;;;8.10;4.70;;;9.30;93.00;;;;;;5062814;28;20020;-76
2021/05/25 05:27:42;;;;;;;7.33;3.87;;;9.40;92.90;;;;;;5063227;28;20032;-75
2021/05/25 05:30:09;;;;;;;6.83;3.83;;;9.40;92.90;;;;;;5063727;28;20170;-77
2021/05/25 05:32:34;;;;;;;7.23;3.37;;;9.50;93.20;;;;;;5057667;28;20032;-78
2021/05/25 05:35:00;;;;;;;6.97;3.30;;;9.40;92.90;;;;;;5071884;28;20055;-75
2021/05/25 05:37:26;;;;;;;6.67;3.73;;;9.60;92.90;;;;;;5055609;28;20021;-76
2021/05/25 05:39:51;;;;;;;9.63;5.03;;;9.60;92.80;;;;;;5071889;28;20362;-77
2021/05/25 05:42:17;;;;;;;9.53;3.63;;;9.70;92.60;;;;;;5055288;28;20028;-77
2021/05/25 05:44:44;;;;;;;6.67;4.27;;;9.70;92.60;;;;;;5055580;28;20090;-77
2021/05/25 05:47:10;;;;;;;6.90;4.10;;;9.80;92.60;;;;;;5055789;28;20112;-75
2021/05/25 05:49:37;;;;;;;7.00;3.90;;;9.80;92.40;;;;;;5073187;28;20024;-77
2021/05/25 05:52:02;;;;;;;7.23;4.67;;;9.80;92.40;;;;;;5055464;28;20029;-76
2021/05/25 05:54:28;;;;;;;7.73;4.80;;;9.80;92.40;;;;;;5055131;28;20427;-77
2021/05/25 05:56:54;;;;;;;10.03;5.50;;;9.90;92.40;;;;;;5054934;28;20024;-75
2021/05/25 05:59:19;;;;;;;8.80;4.27;;;10.00;92.30;;;;;;5060018;28;20495;-76
2021/05/25 06:01:45;;;;;;;10.07;5.40;;;10.00;92.30;;;;;;5058083;28;20033;-75
2021/05/25 06:04:11;;;;;;;11.23;5.23;;;10.20;92.10;;;;;;5067655;28;20112;-75
2021/05/25 06:06:37;;;;;;;8.40;5.53;;;10.10;92.00;;;;;;5047587;28;20112;-76
2021/05/25 06:09:04;;;;;;;8.37;5.13;;;10.10;91.90;;;;;;5051041;28;20021;-75
2021/05/25 06:11:31;;;;;;;10.80;6.23;;;10.20;91.80;;;;;;5051978;28;20025;-76
2021/05/25 06:13:57;;;;;;;9.93;5.93;;;10.20;91.70;;;;;;5053008;28;20045;-77
2021/05/25 06:16:24;;;;;;;10.83;6.10;;;10.20;91.60;;;;;;5051272;28;20444;-76
2021/05/25 06:18:49;;;;;;;10.30;6.53;;;10.20;91.50;;;;;;5034810;28;20500;-78
2021/05/25 06:21:15;;;;;;;8.40;6.33;;;10.30;91.40;;;;;;5052547;28;20029;-78
2021/05/25 06:23:41;;;;;;;9.63;6.50;;;10.30;91.30;;;;;;5018048;28;20094;-77
2021/05/25 06:26:07;;;;;;;8.83;6.33;;;10.30;91.20;;;;;;5034870;28;20033;-82
2021/05/25 06:28:33;;;;;;;14.03;7.17;;;10.40;91.20;;;;;;5034864;28;20031;-78
2021/05/25 06:30:59;;;;;;;7.90;6.00;;;10.40;91.20;;;;;;5051322;28;20096;-77
2021/05/25 06:33:25;;;;;;;9.30;6.70;;;10.50;91.10;;;;;;5037424;28;20115;-78
2021/05/25 06:35:50;;;;;;;10.27;7.10;;;10.50;91.00;;;;;;5038191;28;20025;-78
2021/05/25 06:38:17;;;;;;;10.97;6.50;;;10.50;90.90;;;;;;5056070;28;20029;-76
2021/05/25 06:40:43;;;;;;;12.03;7.43;;;10.60;91.00;;;;;;5054833;28;20029;-78
2021/05/25 06:43:09;;;;;;;10.43;6.90;;;10.60;90.80;;;;;;5054819;28;20458;-78
2021/05/25 06:45:35;;;;;;;12.33;7.50;;;10.60;90.60;;;;;;5038283;28;20060;-78
2021/05/25 06:48:00;;;;;;;10.13;7.10;;;10.70;90.60;;;;;;5054691;28;20098;-79
2021/05/25 06:50:26;;;;;;;10.80;7.90;;;10.80;90.70;;;;;;5038262;28;20472;-77
2021/05/25 06:52:51;;;;;;;14.33;9.10;;;10.80;90.30;;;;;;5060193;28;20112;-80
2021/05/25 06:55:17;;;;;;;11.93;8.77;;;10.80;90.30;;;;;;5037849;28;20017;-76
2021/05/25 06:57:43;;;;;;;12.83;9.90;;;10.80;90.20;;;;;;5054711;28;20044;-78
2021/05/25 07:00:12;;;;;;;11.60;8.00;;;10.70;90.20;;;;;;5055796;28;20102;-82
2021/05/25 07:02:38;;;;;;;10.67;8.30;;;10.80;90.30;;;;;;5054643;28;20491;-78
2021/05/25 07:05:06;;;;;;;14.63;8.77;;;10.90;90.40;;;;;;5055723;28;20029;-79
2021/05/25 07:07:32;;;;;;;9.80;7.63;;;10.90;90.40;;;;;;5054161;28;20028;-77
2021/05/25 07:09:57;;;;;;;13.47;8.63;;;11.00;90.20;;;;;;5055123;28;20488;-79
2021/05/25 07:12:23;;;;;;;13.20;8.53;;;11.00;90.20;;;;;;5054423;28;20033;-77
2021/05/25 07:14:49;;;;;;;12.57;9.00;;;11.10;90.20;;;;;;5054177;28;20542;-79
2021/05/25 07:17:15;;;;;;;10.47;7.87;;;11.20;89.90;;;;;;5037338;28;20052;-75
2021/05/25 07:19:40;;;;;;;10.47;7.93;;;11.30;90.00;;;;;;5055266;28;20033;-76
2021/05/25 07:22:06;;;;;;;12.33;8.13;;;11.30;89.70;;;;;;5054050;28;20041;-78
2021/05/25 07:24:32;;;;;;;14.80;8.87;;;11.30;89.60;;;;;;5060494;28;20048;-78
2021/05/25 07:26:58;;;;;;;14.53;9.97;;;11.40;89.50;;;;;;5073845;28;20021;-78
2021/05/25 07:29:24;;;;;;;12.50;9.53;;;11.30;88.90;;;;;;5072969;28;20104;-79
2021/05/25 07:31:50;;;;;;;10.97;8.70;;;11.30;88.90;;;;;;5057349;28;20033;-79
2021/05/25 07:34:16;;;;;;;12.13;8.60;;;11.40;88.90;;;;;;5074905;28;20035;-79
2021/05/25 07:36:41;;;;;;;10.03;7.23;;;11.40;88.60;;;;;;5075135;28;20028;-77
2021/05/25 07:39:07;;;;;;;11.23;7.40;;;11.50;88.40;;;;;;5073675;28;20024;-76
2021/05/25 07:41:34;;;;;;;12.20;7.57;;;11.50;88.00;;;;;;5057130;28;20028;-77
2021/05/25 07:44:00;;;;;;;10.13;7.70;;;11.50;88.30;;;;;;5073040;28;20024;-78
2021/05/25 07:46:26;;;;;;;12.47;7.80;;;11.70;88.30;;;;;;5075099;28;20028;-76
2021/05/25 07:48:53;;;;;;;12.47;7.50;;;11.70;87.90;;;;;;5057146;28;20098;-78
2021/05/25 07:51:19;;;;;;;10.07;7.10;;;11.70;88.10;;;;;;5073662;28;20020;-79
2021/05/25 07:53:45;;;;;;;9.47;6.23;;;11.90;88.20;;;;;;5073467;28;20037;-78
2021/05/25 07:56:11;;;;;;;9.60;6.70;;;12.00;88.20;;;;;;5073291;28;20435;-77
2021/05/25 07:58:37;;;;;;;9.27;5.75;;;12.10;87.50;;;;;;5074676;28;20046;-80
2021/05/25 08:01:03;;;;;;;8.02;5.85;;;12.20;87.30;;;;;;5073306;28;20017;-78
2021/05/25 08:03:29;;;;;;;10.13;5.65;;;12.30;87.10;;;;;;5074465;28;20024;-82
2021/05/25 08:05:57;;;;;;;10.30;5.97;;;12.40;86.80;;;;;;5073657;28;20055;-78
2021/05/25 08:08:23;;;;;;;8.90;6.07;;;12.30;87.00;;;;;;5073809;28;20024;-77
2021/05/25 08:10:48;;;;;;;9.45;6.05;;;12.30;87.60;;;;;;5073592;28;20387;-77
2021/05/25 08:13:14;;;;;;;10.23;7.00;;;12.20;87.80;;;;;;5067309;28;20029;-78
2021/05/25 08:15:41;;;;;;;9.43;6.30;;;12.20;88.30;;;;;;5036436;28;20064;-77
2021/05/25 08:18:14;;;;;;;8.27;5.88;;;12.20;88.60;;;;;;5036509;28;20124;-77
2021/05/25 08:20:40;;;;;;;8.35;5.10;;;12.30;88.90;;;;;;5037276;28;20051;-81
2021/05/25 08:23:10;;;;;;;9.43;5.20;;;12.40;89.00;;;;;;5054215;28;20029;-80
2021/05/25 08:25:36;;;;;;;9.07;5.45;;;12.40;88.80;;;;;;5053223;28;20024;-80
2021/05/25 08:28:05;;;;;;;7.68;3.88;;;12.50;88.30;;;;;;5054205;28;20029;-77
2021/05/25 08:30:33;;;;;;;7.32;4.13;;;12.60;87.90;;;;;;5053073;28;20477;-77
2021/05/25 08:33:00;;;;;;;7.22;3.75;;;12.70;87.00;;;;;;5052563;28;20044;-77
2021/05/25 08:35:29;;;;;;;7.78;3.60;;;12.80;86.80;;;;;;5052731;28;20337;-80
2021/05/25 08:37:59;;;;;;;6.88;2.20;;;12.90;86.60;;;;;;5053333;28;20021;-77
2021/05/25 08:40:25;;;;;;;5.50;2.20;;;13.00;84.70;;;;;;5036580;28;20021;-76
2021/05/25 08:42:51;;;;;;;6.13;1.75;;;12.90;84.00;;;;;;5053923;28;20028;-80
2021/05/25 08:45:18;;;;;;;6.53;1.45;;;12.90;83.80;;;;;;5052694;28;20029;-78
2021/05/25 08:47:45;;;;;;;5.78;1.88;;;13.00;83.90;;;;;;5053777;28;20491;-76
2021/05/25 08:50:16;;;;;;;7.60;1.92;;;13.00;84.00;;;;;;5035949;28;20029;-77
2021/05/25 08:52:42;;;;;;;6.00;2.00;;;13.20;83.60;;;;;;5052934;28;20036;-79
2021/05/25 08:55:09;;;;;;;5.90;1.90;;;13.30;83.50;;;;;;5052578;28;20029;-76
2021/05/25 08:57:35;;;;;;;6.72;1.63;;;13.40;83.80;;;;;;5052537;28;20060;-77
2021/05/25 09:00:03;;;;;;;6.93;1.95;;;13.50;83.70;;;;;;5054142;28;20029;-78
2021/05/25 09:02:29;;;;;;;6.93;1.60;;;13.60;83.00;;;;;;5036426;28;20024;-77
2021/05/25 09:05:10;;;;;;;5.30;1.42;;;13.70;82.20;;;;;;5019450;28;20116;-76
2021/05/25 09:07:50;;;;;;;3.03;0.80;;;13.80;81.00;;;;;;5052064;28;20021;-81
2021/05/25 09:10:37;;;;;;;4.30;0.88;;;13.60;78.30;;;;;;5052085;28;20029;-76
2021/05/25 09:13:04;;;;;;;3.13;0.60;;;13.10;81.50;;;;;;5051909;28;20059;-77
2021/05/25 09:15:40;;;;;;;4.45;0.60;;;12.50;83.50;;;;;;5035972;28;20021;-77
2021/05/25 09:18:12;;;;;;;3.40;0.83;;;12.00;85.30;;;;;;5035726;28;20484;-78
2021/05/25 09:20:41;;;;;;;5.83;1.30;;;11.60;87.50;;;;;;5053095;28;20070;-78
2021/05/25 09:23:08;;;;;;;5.97;1.40;;;11.30;89.60;;;;;;5053508;28;20082;-76
2021/05/25 09:25:34;;;;;;;4.13;1.67;;;11.10;90.50;;;;;;5035484;28;20021;-77
2021/05/25 09:28:14;;;;;;;6.03;2.13;;;11.00;91.50;;;;;;5019276;28;20023;-77
2021/05/25 09:30:41;;;;;;;4.73;1.67;;;10.80;92.20;;;;;;5053393;28;20407;-76
2021/05/25 09:33:10;;;;;;;4.93;2.27;;;10.70;92.60;;;;;;5035549;28;20021;-75
2021/05/25 09:35:38;;;;;;;4.87;2.20;;;10.60;93.40;;;;;;5052221;28;20017;-76
2021/05/25 09:38:12;;;;;;;4.30;1.50;;;10.50;93.40;;;;;;5053545;28;20021;-78
2021/05/25 09:40:40;;;;;;;4.47;1.80;;;10.50;93.90;;;;;;5053165;28;20013;-77
2021/05/25 09:43:35;;;;;;;5.20;1.80;;;10.50;94.40;;;;;;5051817;28;20017;-80
2021/05/25 09:46:13;;;;;;;8.00;2.23;;;10.60;94.50;;;;;;5052502;28;20037;-77
2021/05/25 09:48:57;;;;;;;7.27;1.50;;;10.60;94.60;;;;;;5035819;28;20032;-79
2021/05/25 09:51:29;;;;;;;5.68;2.10;;;10.60;94.90;;;;;;5053125;28;20028;-77
2021/05/25 09:53:56;;;;;;;6.90;2.20;;;10.70;95.00;;;;;;5051737;28;20029;-78
2021/05/25 09:56:22;;;;;;;7.83;2.57;;;10.90;95.10;;;;;;5052975;28;20810;-77
2021/05/25 09:58:48;;;;;;;7.30;3.70;;;11.00;95.30;;;;;;5052938;28;20059;-77
2021/05/25 10:01:14;;;;;;;10.93;3.77;;;11.10;95.50;;;;;;5052052;28;20469;-80
2021/05/25 10:03:49;;;;;;;12.20;3.77;;;11.30;95.60;;;;;;5052469;28;20020;-78
2021/05/25 10:06:16;;;;;;;10.60;4.37;;;11.30;95.60;;;;;;5051544;28;20392;-78
2021/05/25 10:08:46;;;;;;;8.30;4.00;;;11.40;95.70;;;;;;5055194;28;20385;-80
2021/05/25 10:11:18;;;;;;;12.97;4.97;;;11.60;95.80;;;;;;5039036;28;20075;-79
2021/05/25 10:13:44;;;;;;;10.70;5.13;;;11.70;95.80;;;;;;5056792;28;20021;-80
2021/05/25 10:16:12;;;;;;;11.60;4.50;;;11.90;95.70;;;;;;5056605;28;20029;-86
2021/05/25 10:19:01;;;;;;;12.18;4.57;;;12.00;95.70;;;;;;5055703;28;20029;-79
2021/05/25 10:21:26;;;;;;;16.92;5.15;;;12.10;95.60;;;;;;5071607;28;20024;-80
2021/05/25 10:23:54;;;;;;;15.32;6.07;;;12.20;95.40;;;;;;5039533;28;20437;-79
2021/05/25 10:26:23;;;;;;;11.50;4.90;;;12.20;95.50;;;;;;5049154;28;20044;-79
2021/05/25 10:28:53;;;;;;;16.75;5.28;;;12.40;95.80;;;;;;5055116;28;20025;-80
2021/05/25 10:31:33;;;;;;;23.23;4.78;;;12.40;95.20;;;;;;5038793;28;20029;-81
2021/05/25 10:34:15;;;;;;;12.00;3.45;;;12.30;93.60;;;;;;5055312;28;20040;-80
2021/05/25 10:36:53;;;;;;;6.63;2.67;;;11.70;93.10;;;;;;5054999;28;20021;-78
2021/05/25 10:39:28;;;;;;;13.53;4.37;;;11.30;93.70;;;;;;5038565;28;20025;-79
2021/05/25 10:42:19;;;;;;;11.40;4.37;;;10.80;94.30;;;;;;5055992;28;20108;-80
2021/05/25 10:45:14;;;;;;;10.67;5.87;;;10.60;95.00;;;;;;5067530;28;20051;-84
2021/05/25 10:47:55;;;;;;;14.07;5.90;;;10.50;95.60;;;;;;5073549;28;20025;-81
2021/05/25 10:50:27;;;;;;;14.83;6.30;;;10.50;95.90;;;;;;5074294;28;20369;-77
2021/05/25 10:52:56;;;;;;;13.90;6.40;;;10.50;96.30;;;;;;5070055;28;20021;-78
2021/05/25 10:55:33;;;;;;;14.27;5.90;;;10.60;96.40;;;;;;5055317;28;20033;-80
2021/05/25 10:58:00;;;;;;;11.07;5.57;;;10.60;96.60;;;;;;5056325;28;20477;-77
2021/05/25 11:00:33;;;;;;;11.87;5.67;;;10.80;96.80;;;;;;5055987;28;20043;-78
2021/05/25 11:03:04;;;;;;;11.77;7.20;;;11.10;97.30;;;;;;5054712;28;20021;-78
2021/05/25 11:05:35;;;;;;;12.45;4.22;;;11.60;98.10;;;;;;5054631;28;20071;-83
2021/05/25 11:08:23;;;;;;;7.40;3.08;;;12.20;98.60;;;;;;5055873;28;20389;-79
2021/05/25 11:11:01;;;;;;;7.25;2.95;;;12.60;98.70;;;;;;5054361;28;20028;-80
2021/05/25 11:13:29;;;;;;;5.65;2.05;;;13.20;99.00;;;;;;5038769;28;20446;-81
2021/05/25 11:16:29;;;;;;;4.97;1.65;;;13.80;99.40;;;;;;5054540;28;20056;-82
2021/05/25 11:19:56;;;;;;;7.03;1.48;;;14.40;99.70;;;;;;5053406;28;20040;-80
2021/05/25 11:22:22;;;;;;;;;;;15.00;99.60;;;;;;5071634;28;20020;-79
2021/05/25 11:24:59;;;;;;;4.82;1.23;;;15.40;99.10;;;;;;5072179;28;19912;-82
2021/05/25 11:27:42;;;;;;;3.63;0.88;;;15.80;98.50;;;;;;5053523;28;20025;-78
2021/05/25 11:30:24;;;;;;;2.80;0.82;;;15.90;97.30;;;;;;5070229;28;20052;-78
2021/05/25 11:32:52;;;;;;;2.67;0.85;;;16.00;97.00;;;;;;5070241;28;20028;-78
2021/05/25 11:35:21;;;;;;;3.00;0.70;;;16.10;96.50;;;;;;5057687;28;20127;-80
2021/05/25 11:37:51;;;;;;;2.97;0.70;;;16.50;96.50;;;;;;5070412;28;20021;-83
2021/05/25 11:40:19;;;;;;;3.72;1.05;;;16.90;95.40;;;;;;5055059;28;20017;-77
2021/05/25 11:42:49;;;;;;;4.30;0.80;;;17.30;95.10;;;;;;5054975;28;20021;-82
2021/05/25 11:45:17;;;;;;;4.72;0.70;;;17.70;93.40;;;;;;5053741;28;20025;-81
2021/05/25 11:47:43;;;;;;;4.82;0.77;;;18.00;91.20;;;;;;5054013;28;20090;-83
2021/05/25 11:50:11;;;;;;;2.45;0.70;;;18.20;87.80;;;;;;5053625;28;20029;-79
2021/05/25 11:52:39;;;;;;;2.17;0.50;;;18.00;83.50;;;;;;5053546;28;20033;-84
2021/05/25 11:55:13;;;;;;;3.80;0.50;;;17.50;81.50;;;;;;5044303;28;20021;-84
2021/05/25 11:57:39;;;;;;;3.75;0.60;;;17.00;79.60;;;;;;5057284;28;20024;-80
2021/05/25 12:00:20;;;;;;;2.63;0.80;;;16.70;77.50;;;;;;5073270;28;20032;-78
2021/05/25 12:02:57;;;;;;;3.67;0.68;;;16.30;79.50;;;;;;5053327;28;20037;-85
2021/05/25 12:05:24;;;;;;;1.98;0.50;;;16.30;82.20;;;;;;5053383;28;20380;-81
2021/05/25 12:08:04;;;;;;;3.95;0.70;;;16.40;82.50;;;;;;5054518;28;20033;-86
2021/05/25 12:10:32;;;;;;;2.47;0.52;;;16.30;79.70;;;;;;5053159;28;20021;-80
2021/05/25 12:13:16;;;;;;;1.30;0.30;;;16.20;80.20;;;;;;5036367;28;20476;-79
2021/05/25 12:15:43;;;;;;;2.60;0.50;;;16.20;80.10;;;;;;5054418;28;20025;-83
2021/05/25 12:18:14;;;;;;;2.30;0.50;;;16.00;78.10;;;;;;5056014;28;20536;-82
2021/05/25 12:20:46;;;;;;;2.22;0.40;;;15.80;77.50;;;;;;5054386;28;20083;-78
2021/05/25 12:23:17;;;;;;;1.75;0.35;;;15.60;76.70;;;;;;5053074;28;20488;-78
2021/05/25 12:26:02;;;;;;;2.45;0.65;;;15.40;76.60;;;;;;5053214;28;20396;-77
2021/05/25 12:28:34;;;;;;;3.28;0.80;;;15.20;74.30;;;;;;5057427;28;20071;-85
2021/05/25 12:31:01;;;;;;;3.00;0.40;;;15.00;73.90;;;;;;5053677;28;20020;-81
2021/05/25 12:33:30;;;;;;;2.95;0.40;;;14.90;72.50;;;;;;5036108;28;20029;-79
2021/05/25 12:36:16;;;;;;;4.05;0.35;;;14.80;73.90;;;;;;5052826;28;20021;-78
2021/05/25 12:39:31;;;;;;;2.67;0.38;;;14.70;74.60;;;;;;5053758;28;20025;-78
2021/05/25 12:41:56;;;;;;;;;;;14.60;74.50;;;;;;5054543;28;20491;-84
2021/05/25 12:44:31;;;;;;;1.50;0.40;;;14.30;74.10;;;;;;5066437;28;19908;-81
2021/05/25 12:47:02;;;;;;;;;;;14.20;74.40;;;;;;5074523;28;20028;-86
2021/05/25 12:49:27;;;;;;;2.17;0.30;;;14.00;75.10;;;;;;5073512;28;19931;-82
2021/05/25 12:52:12;;;;;;;2.97;0.40;;;13.90;75.70;;;;;;5072216;28;20029;-78
2021/05/25 12:54:38;;;;;;;2.53;0.30;;;13.80;76.10;;;;;;5058241;28;20395;-82
2021/05/25 12:57:04;;;;;;;1.60;0.30;;;13.90;77.30;;;;;;5073766;28;20108;-79